| parent folder | - | - |
| - | 07. Mis-Teeq - All I Want (Sunship Radio Edit).mp3 | 5043859 | 2024-12-04 10:22:54 |
| - | 8 Days a Week (Sunship 12_ Edit) [rj_KGVdaHzw].mp3 | 4496533 | 2026-05-06 05:56:49 |
| - | Architechs ft Nana - Body Groove [Original Mix MC Vers].mp3 | 7239399 | 2024-12-04 10:20:17 |
| - | Artful Dodger - Movin' Too Fast.mp3 | 5690860 | 2024-12-04 10:18:32 |
| - | Artful Dodger Presents R. Craig & Craig David - Woman Trouble (Sunship's Bombastic Vocal Mix).mp3 | 3795531 | 2026-05-06 05:55:36 |
| - | B15 Project (Ft. Shola Ama) - Feel So Good (EZ More To The Floor).mp3 | 7641266 | 2024-12-04 10:27:31 |
| - | Closer Than Close (Mentor Original Mix) (1995).mp3 | 9660717 | 2024-12-04 10:24:17 |
| - | Crazy Love - MJ Cole.mp3 | 6713397 | 2024-12-04 10:05:32 |
| - | Daniel Bedingfield - Gotta Get Thru This (D'N'D Full Length Version)(TO).mp3 | 6088365 | 2024-12-04 10:20:31 |
| - | De la Soul - All good (Mj Cole Remix).mp3 | 5088775 | 2026-05-06 05:47:14 |
| - | Dynamite (Dancehall Queen).mp3 | 5347924 | 2024-12-04 10:32:04 |
| - | Fabulous Baker Boys - Oh Boy (Ramsey & Fen Remix) (Official Audio) GRAND Music.mp3 | 8753456 | 2024-12-04 10:17:20 |
| - | Friendly Pressure (Into The Sunshine Mix).mp3 | 8036865 | 2024-12-04 10:09:19 |
| - | Friendly Pressure (Into The Sunshine Sped Up Version).mp3 | 7498951 | 2024-12-04 10:11:55 |
| - | Girls Like Us.mp3 | 8557851 | 2024-12-04 09:59:20 |
| - | Jessie's Song - Tell Me - Original Mix (UK Garage) HQ.mp3 | 8115859 | 2024-12-04 10:28:58 |
| - | Kcat - My Destiny (Garage Bassline 2008) [bvLZ29ogWYg].mp3 | 4594687 | 2025-02-20 23:00:39 |
| - | KiLLOWEN - Pick Your Poison [Instrumental] (Prod. By KiLLOWEN).mp3 | 3294700 | 2025-07-28 11:39:20 |
| - | Klaus Veen - Backwards with Todd Edwards [vj0jR8UyB0o].mp3 | 6285097 | 2025-02-20 23:02:21 |
| - | N nG ft. Kallaghan - Right Before My Eyes (Grant Nelsons BuckinFumpin Vocal Mix).mp3 | 8472587 | 2026-05-06 06:00:32 |
| - | N4tee - Bam Bam Dub Speed Garage Played At 138 BPM RIPPED.mp3 | 6027526 | 2024-12-04 10:30:58 |
| - | Never Gonna Let You Go (Kelly G. Bump-N-Go Dub).mp3 | 7390491 | 2024-12-04 10:16:38 |
| - | NewJeans 뉴진스 'How Sweet (UK Garage Remix)'.mp3 | 5089626 | 2024-12-04 10:29:30 |
| - | Niko B - Whys this dealer_ (Official Audio).mp3 | 3089064 | 2024-12-04 10:30:07 |
| - | Ramsey & Fen - Into You (2 Step Bump Mix [qtNhYE6LHLk].mp3 | 4359097 | 2025-02-20 23:03:43 |
| - | Restless Natives I Wanna Know (Will It Be) (original Bootie vocal) (OLD SCHOOL UK GARAGE CLASSIC).mp3 | 7903954 | 2024-12-04 10:01:22 |
| - | Roy Davis Jr - Gabrielle - Live Garage Version (UK Garage).mp3 | 10183503 | 2024-12-04 10:14:40 |
| - | Shola Ama Run To Me (Club Asylum Vocal) (Old School Garage Classics - UK Garage).mp3 | 5130407 | 2026-05-06 05:45:21 |
| - | Shola Ama - Imagine (Club Asylum Remix) UKG.mp3 | 5455535 | 2026-05-06 05:50:46 |
| - | Smokin Beats - Dreams - Feat Lyn Eden (Original Mix).mp3 | 11198517 | 2024-12-04 10:16:10 |
| - | Sound Of One - As I Am (Todd Edwards Mix).mp3 | 5085120 | 2026-05-06 05:59:09 |
| - | Sweet Female Attitude - Flowers (Sunship Mix).mp3 | 5441965 | 2024-12-04 10:10:07 |
| - | Talk To Me.mp3 | 9964075 | 2024-12-04 10:03:15 |
| - | The B15 Project Feat Mr Vegas- The Birmingham Crew.mp3 | 7683898 | 2024-12-04 10:26:27 |
| - | Treat Me Right.mp3 | 9903888 | 2024-12-04 10:34:41 |
| - | UK Garage - Freak Like Me (Original Mix) - Tru Faith & Dub Conspiracy.mp3 | 4660173 | 2024-12-04 10:24:34 |
| - | UK Garage - Redzki Don - Hobsons Choice (Redzki's Vocal Mix).mp3 | 7757877 | 2024-12-04 10:02:05 |
| - | UK Garage - Y-Tribe - Enough Is Enough.mp3 | 6626879 | 2024-12-04 10:08:20 |
| - | UK Garage - Y-Tribe - My Favorite Girl.mp3 | 6967934 | 2024-12-04 10:06:29 |
| - | UKG - Sunship - Try Me Out (Let Me Lick It) - A (This Side).mp3 | 8220558 | 2024-12-04 10:07:45 |
| - | Wideboys ft Dennis G - Sambuca HD (1).mp3 | 4341061 | 2024-12-04 10:19:45 |
| - | Wideboys ft Dennis G - Sambuca HD.mp3 | 4341061 | 2024-12-04 10:19:17 |
| - | m dubs - bump n grind (sunship mix).mp3 | 7625593 | 2024-12-04 10:24:59 |
| - | pick your poison.mp3 | 3292192 | 2025-07-28 11:38:38 |
| - | when angels sing.mp3 | 3484156 | 2025-02-20 23:01:53 |